Time;durP1;ratioP1;P1;durP2;ratioP2;P2;SDS_P1;SDS_P2;PMS_P1;PMS_P2;Temp;Humidity;BMP_temperature;BMP_pressure;BME280_temperature;BME280_humidity;BME280_pressure;Samples;Min_cycle;Max_cycle;Signal;HPM_P1;HPM_P2
2021/07/14 00:01:38;;;;;;;1.75;1.10;;;14.20;91.50;;;;;;4958273;28;20525;-70
2021/07/14 00:04:03;;;;;;;1.38;1.17;;;14.20;91.50;;;;;;4951478;28;20031;-71
2021/07/14 00:06:29;;;;;;;2.85;1.30;;;14.20;91.40;;;;;;4949067;28;20038;-71
2021/07/14 00:08:55;;;;;;;1.67;1.08;;;14.20;91.40;;;;;;4950661;28;20027;-71
2021/07/14 00:11:20;;;;;;;1.67;1.10;;;14.30;91.20;;;;;;4951969;28;20091;-71
2021/07/14 00:14:15;;;;;;;1.25;1.15;;;14.20;91.10;;;;;;4949499;28;20471;-71
2021/07/14 00:22:11;;;;;;;0.90;0.90;;;14.20;90.90;;;;;;4949346;28;20050;-72
2021/07/14 00:24:37;;;;;;;0.95;0.93;;;14.20;90.90;;;;;;4949303;28;20023;-72
2021/07/14 00:27:06;;;;;;;1.75;1.10;;;14.20;90.90;;;;;;4948936;28;20030;-71
2021/07/14 00:29:37;;;;;;;1.25;1.05;;;14.20;91.00;;;;;;4947982;28;20035;-72
2021/07/14 00:32:08;;;;;;;1.35;1.10;;;14.10;91.00;;;;;;4948638;28;20514;-72
2021/07/14 00:34:34;;;;;;;0.82;0.82;;;14.10;90.90;;;;;;4947490;28;20035;-72
2021/07/14 00:37:00;;;;;;;2.88;1.10;;;14.10;91.00;;;;;;4947987;28;20046;-72
2021/07/14 00:39:25;;;;;;;2.03;1.10;;;14.10;90.90;;;;;;4953878;28;20368;-72
2021/07/14 00:41:51;;;;;;;2.50;1.17;;;14.10;90.90;;;;;;4953658;28;20407;-71
2021/07/14 00:44:17;;;;;;;1.85;1.08;;;14.10;90.90;;;;;;4947556;28;20031;-70
2021/07/14 00:46:46;;;;;;;1.10;1.08;;;14.10;90.90;;;;;;4947705;28;20033;-71
2021/07/14 00:49:13;;;;;;;1.55;1.15;;;14.00;91.10;;;;;;4948097;28;20023;-71
2021/07/14 00:51:40;;;;;;;1.85;0.95;;;14.00;90.80;;;;;;4949012;28;20031;-71
2021/07/14 00:54:06;;;;;;;1.55;0.80;;;14.00;90.80;;;;;;4948220;28;20034;-71
2021/07/14 00:56:31;;;;;;;2.97;1.00;;;14.00;90.80;;;;;;4948798;28;20035;-71
2021/07/14 00:58:57;;;;;;;1.30;1.10;;;13.90;90.80;;;;;;4946875;28;20043;-71
2021/07/14 01:01:24;;;;;;;1.90;1.00;;;14.00;90.90;;;;;;4945754;28;20514;-73
2021/07/14 01:04:01;;;;;;;0.95;0.85;;;13.90;91.10;;;;;;4953876;28;20035;-71
2021/07/14 01:06:40;;;;;;;1.38;1.10;;;13.90;91.00;;;;;;4947630;28;20102;-71
2021/07/14 01:09:08;;;;;;;1.10;1.05;;;13.90;91.00;;;;;;4944333;28;20437;-72
2021/07/14 01:11:36;;;;;;;1.52;0.90;;;13.90;90.80;;;;;;4946302;28;20106;-72
2021/07/14 01:14:21;;;;;;;1.00;1.00;;;13.90;90.80;;;;;;4949311;28;20046;-71
2021/07/14 01:16:51;;;;;;;1.05;0.95;;;13.90;91.00;;;;;;4956287;28;20507;-72
2021/07/14 01:19:49;;;;;;;0.85;0.85;;;14.00;91.10;;;;;;4949001;28;20441;-72
2021/07/14 01:22:37;;;;;;;1.00;0.98;;;13.90;91.00;;;;;;4914086;28;20203;-72
2021/07/14 01:25:07;;;;;;;0.88;0.88;;;13.90;91.20;;;;;;4943696;28;20580;-72
2021/07/14 01:27:38;;;;;;;4.28;1.00;;;13.90;91.10;;;;;;4953249;28;20502;-71
2021/07/14 01:30:11;;;;;;;1.02;0.90;;;13.90;90.90;;;;;;4951935;28;20023;-71
2021/07/14 01:32:39;;;;;;;1.08;1.02;;;13.90;90.80;;;;;;4952758;28;20031;-71
2021/07/14 01:35:20;;;;;;;3.80;1.10;;;13.90;90.90;;;;;;4950828;28;20098;-72
2021/07/14 01:37:48;;;;;;;1.27;1.13;;;13.90;91.00;;;;;;4944243;28;20058;-71
2021/07/14 01:40:17;;;;;;;3.40;0.88;;;13.90;90.80;;;;;;4948775;28;20039;-71
2021/07/14 01:42:50;;;;;;;;;;;13.90;91.00;;;;;;4945824;28;20027;-70
2021/07/14 01:45:16;;;;;;;2.95;0.90;;;13.90;90.80;;;;;;4946818;28;19964;-70
2021/07/14 01:47:42;;;;;;;1.40;0.90;;;13.80;91.00;;;;;;4948468;28;20102;-71
2021/07/14 01:50:09;;;;;;;2.55;0.88;;;13.70;91.20;;;;;;4949107;28;20093;-71
2021/07/14 01:52:36;;;;;;;4.38;1.52;;;13.70;91.10;;;;;;4956306;28;20066;-71
2021/07/14 01:55:05;;;;;;;0.90;0.90;;;13.70;91.10;;;;;;4955123;28;20133;-70
2021/07/14 01:57:33;;;;;;;3.20;1.27;;;13.70;91.40;;;;;;4954595;28;20031;-72
2021/07/14 02:00:00;;;;;;;1.20;1.10;;;13.70;90.90;;;;;;4949098;28;20398;-71
2021/07/14 02:02:30;;;;;;;1.88;1.10;;;13.70;90.90;;;;;;4949509;28;20035;-71
2021/07/14 02:04:58;;;;;;;0.90;0.88;;;13.70;90.90;;;;;;4954027;28;20537;-71
2021/07/14 02:07:27;;;;;;;2.27;1.00;;;13.60;90.90;;;;;;4957867;28;20494;-70
2021/07/14 02:09:55;;;;;;;1.40;1.05;;;13.70;91.00;;;;;;4956232;28;20581;-71
2021/07/14 02:12:24;;;;;;;1.23;1.13;;;13.70;91.10;;;;;;4947325;28;20039;-71
2021/07/14 02:15:10;;;;;;;1.05;0.95;;;13.70;91.00;;;;;;4957903;28;20031;-70
2021/07/14 02:17:50;;;;;;;1.98;1.20;;;13.70;90.90;;;;;;4953044;28;20070;-70
2021/07/14 02:20:18;;;;;;;2.33;1.17;;;13.60;91.00;;;;;;4957240;28;20031;-72
2021/07/14 02:22:47;;;;;;;0.90;0.90;;;13.60;91.30;;;;;;4958585;28;20034;-72
2021/07/14 02:25:14;;;;;;;3.90;1.10;;;13.50;91.30;;;;;;4955848;28;20069;-72
2021/07/14 02:27:40;;;;;;;1.17;1.08;;;13.60;91.80;;;;;;4957292;28;20027;-71
2021/07/14 02:30:21;;;;;;;1.30;1.20;;;13.50;91.50;;;;;;4959795;28;20019;-72
2021/07/14 02:32:50;;;;;;;1.35;1.20;;;13.50;91.40;;;;;;4947382;28;20043;-71
2021/07/14 02:35:17;;;;;;;1.30;1.20;;;13.60;91.30;;;;;;4948861;28;20505;-73
2021/07/14 02:38:07;;;;;;;2.17;1.35;;;13.60;91.30;;;;;;4943230;28;20085;-72
2021/07/14 02:40:38;;;;;;;1.45;1.20;;;13.60;91.40;;;;;;4950180;28;20070;-73
2021/07/14 02:43:05;;;;;;;4.90;1.42;;;13.60;91.30;;;;;;4951530;28;20086;-72
2021/07/14 02:45:33;;;;;;;2.08;1.55;;;13.50;91.30;;;;;;4948514;28;20383;-73
2021/07/14 02:48:00;;;;;;;1.40;1.30;;;13.50;91.50;;;;;;4951141;28;20027;-72
2021/07/14 02:50:33;;;;;;;1.23;1.00;;;13.60;91.30;;;;;;4949749;28;20034;-73
2021/07/14 02:53:15;;;;;;;2.78;1.10;;;13.60;91.30;;;;;;4950822;28;20020;-73
2021/07/14 02:55:43;;;;;;;0.90;0.90;;;13.50;91.20;;;;;;4950362;28;20027;-72
2021/07/14 02:58:11;;;;;;;1.90;1.13;;;13.50;91.20;;;;;;4950698;28;20027;-72
2021/07/14 03:00:39;;;;;;;2.53;1.38;;;13.50;91.30;;;;;;4947388;28;20043;-72
2021/07/14 03:03:09;;;;;;;3.65;1.40;;;13.60;91.30;;;;;;4949100;28;20023;-72
2021/07/14 03:05:35;;;;;;;2.95;1.25;;;13.60;91.20;;;;;;4947023;28;20038;-72
2021/07/14 03:08:05;;;;;;;1.92;1.20;;;13.50;91.30;;;;;;4950451;28;20070;-73
2021/07/14 03:10:31;;;;;;;1.65;1.38;;;13.50;91.20;;;;;;4947033;28;20024;-73
2021/07/14 03:13:03;;;;;;;1.30;1.20;;;13.60;91.30;;;;;;4947914;28;20026;-73
2021/07/14 03:15:31;;;;;;;5.03;1.30;;;13.40;91.40;;;;;;4949473;28;20018;-73
2021/07/14 03:17:58;;;;;;;2.53;1.33;;;13.40;91.60;;;;;;4949068;28;20027;-73
2021/07/14 03:20:24;;;;;;;2.20;1.20;;;13.30;91.70;;;;;;4949245;28;20391;-73
2021/07/14 03:22:51;;;;;;;3.03;1.50;;;13.40;92.00;;;;;;4948990;28;20454;-72
2021/07/14 03:25:18;;;;;;;1.17;0.90;;;13.40;91.70;;;;;;4947315;28;20517;-72
2021/07/14 03:27:50;;;;;;;4.75;1.50;;;13.40;91.50;;;;;;4948388;28;20122;-71
2021/07/14 03:30:19;;;;;;;2.92;1.15;;;13.40;91.50;;;;;;4962562;28;20061;-72
2021/07/14 03:32:45;;;;;;;2.95;1.20;;;13.40;91.50;;;;;;4947910;28;20054;-72
2021/07/14 03:35:13;;;;;;;1.70;1.17;;;13.40;91.50;;;;;;4964375;28;20694;-73
2021/07/14 03:37:40;;;;;;;1.20;1.02;;;13.40;91.50;;;;;;4948262;28;20038;-73
2021/07/14 03:40:07;;;;;;;2.75;1.17;;;13.40;91.60;;;;;;4949890;28;20071;-72
2021/07/14 03:42:34;;;;;;;3.28;2.40;;;13.40;91.60;;;;;;4948780;28;20525;-72
2021/07/14 03:45:01;;;;;;;2.53;1.38;;;13.30;91.60;;;;;;4945383;28;20037;-72
2021/07/14 03:47:27;;;;;;;3.40;1.33;;;13.30;91.80;;;;;;4948348;28;20038;-73
2021/07/14 03:49:54;;;;;;;3.67;1.42;;;13.40;91.80;;;;;;4948185;28;20061;-73
2021/07/14 03:52:22;;;;;;;3.17;1.30;;;13.30;91.70;;;;;;4950709;28;20063;-73
2021/07/14 03:54:48;;;;;;;1.30;1.27;;;13.30;91.70;;;;;;4949787;28;20551;-72
2021/07/14 03:57:15;;;;;;;1.70;1.23;;;13.30;91.80;;;;;;4948940;28;20034;-72
2021/07/14 03:59:41;;;;;;;1.98;1.58;;;13.30;91.80;;;;;;4946669;28;20027;-72
2021/07/14 04:02:10;;;;;;;2.53;1.60;;;13.30;91.70;;;;;;4948270;28;20039;-73
2021/07/14 04:04:36;;;;;;;2.25;1.92;;;13.30;91.60;;;;;;4947925;28;20070;-73
2021/07/14 04:07:25;;;;;;;1.35;1.25;;;13.40;91.70;;;;;;4948157;28;20082;-73
2021/07/14 04:09:50;;;;;;;2.63;1.33;;;13.30;91.70;;;;;;4946256;28;20031;-73
2021/07/14 04:12:16;;;;;;;1.38;1.13;;;13.30;91.70;;;;;;4948317;28;20027;-72
2021/07/14 04:14:43;;;;;;;1.42;1.20;;;13.30;91.60;;;;;;4949588;28;20595;-72
2021/07/14 04:17:09;;;;;;;1.20;1.10;;;13.30;91.50;;;;;;4948470;28;20027;-72
2021/07/14 04:19:35;;;;;;;1.40;1.30;;;13.30;91.50;;;;;;4950262;28;20102;-73
2021/07/14 04:22:04;;;;;;;1.50;1.35;;;13.40;91.60;;;;;;4948799;28;20050;-73
2021/07/14 04:24:30;;;;;;;2.72;1.35;;;13.40;91.50;;;;;;4949197;28;20039;-72
2021/07/14 04:26:55;;;;;;;1.40;1.30;;;13.30;91.50;;;;;;4948657;28;20399;-72
2021/07/14 04:29:21;;;;;;;1.67;1.42;;;13.30;91.60;;;;;;4949220;28;20042;-72
2021/07/14 04:31:47;;;;;;;2.55;1.00;;;13.30;91.60;;;;;;4947660;28;20038;-72
2021/07/14 04:34:12;;;;;;;2.70;1.40;;;13.30;91.50;;;;;;4947232;28;20031;-72
2021/07/14 04:36:41;;;;;;;1.42;1.30;;;13.30;91.50;;;;;;4962845;28;20678;-72
2021/07/14 04:39:07;;;;;;;1.33;1.23;;;13.30;91.50;;;;;;4949142;28;20118;-72
2021/07/14 04:41:34;;;;;;;1.52;1.08;;;13.30;91.50;;;;;;4949260;28;20031;-73
2021/07/14 04:44:02;;;;;;;2.95;1.23;;;13.30;91.40;;;;;;4948401;28;20027;-72
2021/07/14 04:46:29;;;;;;;2.65;1.40;;;13.30;91.40;;;;;;4949289;28;20410;-72
2021/07/14 04:48:54;;;;;;;1.65;1.15;;;13.30;91.50;;;;;;4948473;28;20031;-72
2021/07/14 04:51:20;;;;;;;2.75;1.52;;;13.30;91.60;;;;;;4948538;28;20392;-72
2021/07/14 04:53:46;;;;;;;1.42;1.33;;;13.30;91.70;;;;;;4947482;28;20024;-72
2021/07/14 04:56:13;;;;;;;1.60;0.98;;;13.30;91.80;;;;;;4945967;28;21793;-72
2021/07/14 04:58:39;;;;;;;1.73;1.25;;;13.30;91.50;;;;;;4962293;28;20027;-73
2021/07/14 05:01:05;;;;;;;4.10;1.30;;;13.40;91.80;;;;;;4946477;28;20035;-72
2021/07/14 05:03:30;;;;;;;3.05;1.13;;;13.40;91.50;;;;;;4947169;28;20368;-73
2021/07/14 05:05:56;;;;;;;1.10;1.10;;;13.40;91.50;;;;;;4948434;28;20087;-72
2021/07/14 05:08:22;;;;;;;1.23;1.20;;;13.40;91.50;;;;;;4949563;28;20035;-72
2021/07/14 05:10:50;;;;;;;5.70;1.30;;;13.50;91.50;;;;;;4948262;28;20027;-73
2021/07/14 05:13:17;;;;;;;1.13;1.00;;;13.50;91.50;;;;;;4948159;28;20050;-73
2021/07/14 05:15:47;;;;;;;2.28;1.10;;;13.50;91.50;;;;;;4948654;28;20019;-72
2021/07/14 05:18:13;;;;;;;1.60;1.35;;;13.50;91.40;;;;;;4949001;28;20015;-73
2021/07/14 05:20:42;;;;;;;1.58;1.13;;;13.50;91.30;;;;;;4947442;28;20339;-73
2021/07/14 05:23:08;;;;;;;2.65;1.10;;;13.50;91.30;;;;;;4949693;28;20033;-72
2021/07/14 05:25:35;;;;;;;1.38;1.10;;;13.50;91.40;;;;;;4950068;28;20027;-73
2021/07/14 05:28:01;;;;;;;3.97;1.58;;;13.60;91.40;;;;;;4948193;28;20027;-73
2021/07/14 05:30:27;;;;;;;1.30;1.20;;;13.60;91.50;;;;;;4947077;28;20087;-72
2021/07/14 05:32:53;;;;;;;1.70;1.30;;;13.60;91.30;;;;;;4947416;28;20110;-72
2021/07/14 05:35:19;;;;;;;1.33;1.13;;;13.60;91.40;;;;;;4948157;28;20027;-76
2021/07/14 05:37:45;;;;;;;1.40;1.30;;;13.70;91.50;;;;;;4948701;28;20023;-72
2021/07/14 05:40:12;;;;;;;1.33;1.10;;;13.70;91.60;;;;;;4948868;28;20042;-73
2021/07/14 05:42:37;;;;;;;2.45;1.45;;;13.90;91.70;;;;;;4947183;28;20035;-73
2021/07/14 05:45:05;;;;;;;2.38;1.63;;;13.90;91.60;;;;;;4947455;28;20097;-73
2021/07/14 05:47:31;;;;;;;1.27;1.17;;;14.00;91.80;;;;;;4946265;28;20575;-72
2021/07/14 05:49:56;;;;;;;1.80;1.40;;;14.00;91.60;;;;;;4949321;28;20035;-72
2021/07/14 05:52:22;;;;;;;1.98;1.50;;;14.00;91.70;;;;;;4947962;28;20740;-73
2021/07/14 05:54:48;;;;;;;2.47;1.45;;;14.10;91.30;;;;;;4950572;28;20023;-72
2021/07/14 05:57:17;;;;;;;1.48;1.20;;;14.10;91.20;;;;;;4950227;28;20038;-72
2021/07/14 05:59:43;;;;;;;3.03;1.30;;;14.10;91.00;;;;;;4945278;28;20051;-72
2021/07/14 06:02:09;;;;;;;5.65;1.80;;;14.20;91.00;;;;;;4945339;28;20087;-72
2021/07/14 06:04:34;;;;;;;2.22;1.48;;;14.20;90.70;;;;;;4946956;28;20363;-72
2021/07/14 06:07:01;;;;;;;1.83;1.50;;;14.20;90.70;;;;;;4946763;28;20043;-72
2021/07/14 06:09:26;;;;;;;1.80;1.27;;;14.20;90.50;;;;;;4950175;28;20072;-72
2021/07/14 06:11:53;;;;;;;1.73;1.40;;;14.20;90.60;;;;;;4952297;28;20501;-72
2021/07/14 06:14:18;;;;;;;3.60;1.58;;;14.20;90.60;;;;;;4950727;28;20073;-72
2021/07/14 06:16:44;;;;;;;3.53;2.22;;;14.20;90.90;;;;;;4950985;28;20430;-72
2021/07/14 06:19:10;;;;;;;2.83;1.70;;;14.20;91.10;;;;;;4951180;28;20059;-72
2021/07/14 06:21:36;;;;;;;3.58;1.58;;;14.20;91.10;;;;;;4962927;28;20039;-72
2021/07/14 06:24:02;;;;;;;4.15;1.60;;;14.30;90.70;;;;;;4950650;28;20039;-73
2021/07/14 06:26:28;;;;;;;1.65;1.55;;;14.30;90.60;;;;;;4964342;28;20053;-72
2021/07/14 06:28:53;;;;;;;4.43;1.70;;;14.40;90.60;;;;;;4951044;28;20023;-73
2021/07/14 06:31:19;;;;;;;3.95;1.80;;;14.50;90.90;;;;;;4948241;28;20039;-73
2021/07/14 06:33:45;;;;;;;2.03;1.50;;;14.50;90.30;;;;;;4950977;28;20041;-73
2021/07/14 06:36:12;;;;;;;2.38;1.90;;;14.60;90.50;;;;;;4951372;28;20707;-72
2021/07/14 06:38:37;;;;;;;1.73;1.55;;;14.70;90.20;;;;;;4948760;28;20059;-72
2021/07/14 06:41:04;;;;;;;2.33;1.35;;;14.70;89.90;;;;;;4952572;28;20101;-72
2021/07/14 06:43:45;;;;;;;2.95;1.52;;;14.60;90.20;;;;;;4962379;28;20058;-72
2021/07/14 06:46:13;;;;;;;5.97;1.73;;;14.70;90.00;;;;;;4966299;28;20578;-72
2021/07/14 06:48:39;;;;;;;2.83;1.73;;;14.70;89.40;;;;;;4964434;28;20028;-72
2021/07/14 06:51:06;;;;;;;6.70;1.60;;;14.70;89.40;;;;;;4951388;28;20062;-72
2021/07/14 06:53:33;;;;;;;1.50;1.40;;;14.70;90.40;;;;;;4950821;28;20398;-72
2021/07/14 06:56:07;;;;;;;3.00;1.55;;;14.80;90.50;;;;;;4952447;28;20051;-73
2021/07/14 06:58:37;;;;;;;1.65;1.50;;;14.90;89.80;;;;;;4962748;28;20041;-72
2021/07/14 07:01:04;;;;;;;1.63;1.40;;;15.00;90.00;;;;;;4949502;28;20053;-72
2021/07/14 07:03:30;;;;;;;4.50;1.67;;;15.00;90.20;;;;;;4949908;28;20035;-73
2021/07/14 07:05:56;;;;;;;1.63;1.52;;;15.10;89.70;;;;;;4951234;28;20310;-73
2021/07/14 07:08:22;;;;;;;4.25;1.50;;;15.10;90.00;;;;;;4952155;28;20546;-71
2021/07/14 07:10:48;;;;;;;1.90;1.50;;;15.20;90.20;;;;;;4949012;28;20490;-72
2021/07/14 07:13:18;;;;;;;2.15;1.48;;;15.30;90.10;;;;;;4951350;28;20078;-73
2021/07/14 07:15:46;;;;;;;1.45;1.35;;;15.30;89.50;;;;;;4948531;28;20027;-72
2021/07/14 07:18:12;;;;;;;1.73;1.42;;;15.30;89.50;;;;;;4951484;28;20122;-73
2021/07/14 07:20:38;;;;;;;2.22;1.55;;;15.30;89.50;;;;;;4949657;28;20027;-72
2021/07/14 07:23:04;;;;;;;2.03;1.65;;;15.30;88.80;;;;;;4949167;28;20043;-73
2021/07/14 07:25:30;;;;;;;2.28;1.38;;;15.30;88.90;;;;;;4947640;28;20055;-73
2021/07/14 07:27:58;;;;;;;2.17;1.70;;;15.30;89.10;;;;;;4962303;28;20114;-73
2021/07/14 07:30:24;;;;;;;2.72;1.85;;;15.30;89.70;;;;;;4951119;28;20023;-71
2021/07/14 07:32:50;;;;;;;2.33;1.70;;;15.30;88.30;;;;;;4950176;28;20024;-72
2021/07/14 07:35:15;;;;;;;1.73;1.45;;;15.40;89.00;;;;;;4950024;28;20614;-72
2021/07/14 07:37:41;;;;;;;3.47;1.83;;;15.40;88.90;;;;;;4950616;28;20130;-72
2021/07/14 07:40:07;;;;;;;2.13;1.52;;;15.40;88.00;;;;;;4951188;28;20061;-73
2021/07/14 07:42:34;;;;;;;1.27;1.17;;;15.40;88.70;;;;;;4949844;28;20038;-72
2021/07/14 07:45:00;;;;;;;7.47;1.63;;;15.40;88.70;;;;;;4948174;28;20525;-72
2021/07/14 07:47:25;;;;;;;1.70;1.60;;;15.40;88.90;;;;;;4950990;28;20107;-73
2021/07/14 07:49:52;;;;;;;2.55;1.58;;;15.50;88.20;;;;;;4949650;28;20466;-72
2021/07/14 07:52:21;;;;;;;5.70;2.08;;;15.50;88.50;;;;;;4944987;28;20452;-72
2021/07/14 07:54:48;;;;;;;2.30;1.52;;;15.60;89.40;;;;;;4948509;28;20128;-73
2021/07/14 07:57:14;;;;;;;4.20;1.60;;;15.60;87.70;;;;;;4950290;28;20064;-72
2021/07/14 07:59:40;;;;;;;1.75;1.55;;;15.60;88.10;;;;;;4950003;28;20071;-73
2021/07/14 08:02:07;;;;;;;2.10;1.67;;;15.60;87.00;;;;;;4945466;28;20114;-70
2021/07/14 08:04:32;;;;;;;1.45;1.33;;;15.70;86.80;;;;;;4949647;28;20505;-72
2021/07/14 08:06:59;;;;;;;4.60;1.80;;;15.80;87.00;;;;;;4949555;28;20098;-72
2021/07/14 08:09:25;;;;;;;4.22;1.77;;;15.80;88.20;;;;;;4949716;28;20027;-72
2021/07/14 08:11:51;;;;;;;2.17;1.80;;;16.00;88.40;;;;;;4948527;28;20027;-72
2021/07/14 08:14:17;;;;;;;1.67;1.52;;;16.10;87.40;;;;;;4948806;28;20035;-72
2021/07/14 08:16:44;;;;;;;2.47;1.67;;;16.10;87.20;;;;;;4948782;28;20150;-72
2021/07/14 08:19:10;;;;;;;2.88;2.00;;;16.10;85.70;;;;;;4948314;28;20031;-72
2021/07/14 08:21:36;;;;;;;2.25;1.80;;;16.10;86.70;;;;;;4947582;28;20040;-72
2021/07/14 08:24:02;;;;;;;2.08;1.88;;;16.10;85.20;;;;;;4947153;28;20426;-72
2021/07/14 08:26:28;;;;;;;1.80;1.70;;;16.10;83.50;;;;;;4950290;28;20027;-73
2021/07/14 08:28:54;;;;;;;3.30;1.92;;;16.00;85.90;;;;;;4948323;28;20039;-72
2021/07/14 08:31:20;;;;;;;2.10;1.60;;;16.10;86.50;;;;;;4948432;28;20032;-73
2021/07/14 08:33:45;;;;;;;3.05;2.03;;;16.10;85.50;;;;;;4948999;28;20035;-73
2021/07/14 08:36:11;;;;;;;3.20;2.25;;;16.10;85.80;;;;;;4948703;28;20046;-72
2021/07/14 08:38:37;;;;;;;1.70;1.52;;;16.10;86.40;;;;;;4950429;28;20035;-73
2021/07/14 08:41:07;;;;;;;4.90;1.80;;;16.10;85.60;;;;;;4962288;28;20031;-72
2021/07/14 08:43:34;;;;;;;3.88;2.10;;;16.20;85.90;;;;;;4953437;28;20091;-71
2021/07/14 08:46:02;;;;;;;2.17;1.70;;;16.20;86.50;;;;;;4948223;28;20031;-73
2021/07/14 08:48:28;;;;;;;3.45;1.98;;;16.30;86.00;;;;;;4962069;28;20446;-72
2021/07/14 08:50:59;;;;;;;3.75;1.88;;;16.30;84.50;;;;;;4949017;28;20071;-73
2021/07/14 08:53:27;;;;;;;2.33;1.63;;;16.40;84.90;;;;;;4950562;28;20015;-73
2021/07/14 08:55:53;;;;;;;2.55;1.90;;;16.40;84.00;;;;;;4949555;28;20118;-72
2021/07/14 08:58:21;;;;;;;1.60;1.40;;;16.40;84.30;;;;;;4948402;28;20321;-74
2021/07/14 09:00:49;;;;;;;4.40;2.20;;;16.40;85.30;;;;;;4949461;28;20036;-73
2021/07/14 09:03:15;;;;;;;1.77;1.67;;;16.50;86.20;;;;;;4949391;28;20388;-73
2021/07/14 09:05:41;;;;;;;2.22;2.03;;;16.60;84.80;;;;;;4947913;28;20027;-72
2021/07/14 09:08:07;;;;;;;2.05;1.85;;;16.60;83.70;;;;;;4949643;28;20035;-73
2021/07/14 09:10:34;;;;;;;2.17;1.98;;;16.60;82.00;;;;;;4948879;28;20037;-72
2021/07/14 09:13:01;;;;;;;4.05;2.22;;;16.60;81.80;;;;;;4946701;28;20061;-72
2021/07/14 09:15:28;;;;;;;2.40;2.03;;;16.60;83.70;;;;;;4945539;28;20490;-73
2021/07/14 09:17:56;;;;;;;2.33;2.08;;;16.60;84.40;;;;;;4947069;28;20042;-72
2021/07/14 09:20:27;;;;;;;;;;;16.70;84.40;;;;;;4946937;28;20772;-73
2021/07/14 09:23:16;;;;;;;3.25;2.20;;;16.80;84.10;;;;;;4946823;28;19914;-72
2021/07/14 09:25:47;;;;;;;2.10;1.90;;;16.80;82.10;;;;;;4945090;28;20682;-73
2021/07/14 09:28:27;;;;;;;3.72;2.40;;;16.90;82.10;;;;;;4948203;28;20045;-72
2021/07/14 09:31:05;;;;;;;3.58;2.30;;;16.90;83.50;;;;;;4944488;28;20038;-73
2021/07/14 09:33:31;;;;;;;4.25;2.28;;;17.00;83.10;;;;;;4948197;28;20054;-72
2021/07/14 09:35:59;;;;;;;4.90;2.75;;;17.00;84.00;;;;;;4948105;28;20035;-73
2021/07/14 09:38:28;;;;;;;2.50;2.28;;;17.10;83.60;;;;;;4942610;28;20398;-73
2021/07/14 09:40:57;;;;;;;3.75;2.05;;;17.10;82.50;;;;;;4947984;28;20037;-72
2021/07/14 09:43:25;;;;;;;2.47;2.00;;;17.10;81.90;;;;;;4946496;28;20034;-74
2021/07/14 09:46:08;;;;;;;3.05;1.77;;;17.20;82.30;;;;;;4951150;28;20015;-72
2021/07/14 09:48:39;;;;;;;3.30;2.20;;;17.30;83.10;;;;;;4950061;28;20078;-73
2021/07/14 09:51:11;;;;;;;3.97;1.92;;;17.20;79.10;;;;;;4950791;28;20550;-73
2021/07/14 09:53:42;;;;;;;2.70;1.88;;;17.20;80.10;;;;;;4950112;28;20054;-73
2021/07/14 09:56:16;;;;;;;2.42;2.10;;;17.20;79.70;;;;;;4951068;28;20114;-75
2021/07/14 09:58:44;;;;;;;4.90;2.33;;;17.20;78.50;;;;;;4950826;28;20031;-73
2021/07/14 10:01:16;;;;;;;4.20;2.35;;;17.30;80.50;;;;;;4949987;28;20039;-73
2021/07/14 10:03:52;;;;;;;4.15;2.10;;;17.40;80.70;;;;;;4948789;28;20039;-73
2021/07/14 10:06:25;;;;;;;2.28;2.08;;;17.50;77.90;;;;;;4952291;28;20050;-73
2021/07/14 10:08:51;;;;;;;2.85;2.10;;;17.70;80.00;;;;;;4949725;28;20100;-73
2021/07/14 10:11:19;;;;;;;3.67;2.10;;;17.70;77.70;;;;;;4950514;28;20111;-73
2021/07/14 10:13:56;;;;;;;2.25;2.08;;;17.70;78.70;;;;;;4949598;28;20561;-73
2021/07/14 10:16:23;;;;;;;2.20;2.00;;;17.70;79.50;;;;;;4950595;28;20035;-73
2021/07/14 10:19:12;;;;;;;2.70;1.80;;;17.80;80.10;;;;;;4951627;28;20031;-72
2021/07/14 10:21:46;;;;;;;2.40;2.15;;;17.80;79.20;;;;;;4951047;28;20023;-74
2021/07/14 10:24:14;;;;;;;2.25;1.80;;;17.80;79.20;;;;;;4946375;28;20035;-73
2021/07/14 10:26:44;;;;;;;2.17;1.98;;;17.80;77.50;;;;;;4950184;28;20398;-73
2021/07/14 10:29:11;;;;;;;1.98;1.85;;;17.70;75.50;;;;;;4945361;28;20042;-73
2021/07/14 10:31:37;;;;;;;2.65;1.98;;;17.80;78.30;;;;;;4948928;28;20054;-73
2021/07/14 10:34:05;;;;;;;3.50;2.00;;;17.80;77.70;;;;;;4950030;28;20034;-73
2021/07/14 10:36:34;;;;;;;2.20;2.00;;;17.90;77.10;;;;;;4948988;28;20035;-73
2021/07/14 10:39:07;;;;;;;2.20;2.00;;;17.90;76.70;;;;;;4948937;28;20027;-73
2021/07/14 10:41:33;;;;;;;2.63;2.05;;;17.80;76.20;;;;;;4949699;28;20032;-73
2021/07/14 10:44:00;;;;;;;3.33;1.95;;;17.90;77.00;;;;;;4949597;28;20062;-73
2021/07/14 10:46:28;;;;;;;2.93;1.57;;;17.90;78.50;;;;;;4949804;28;20027;-73
2021/07/14 10:48:55;;;;;;;;;;;17.90;75.60;;;;;;4944934;28;21205;-73
2021/07/14 10:51:23;;;;;;;2.10;1.90;;;17.90;74.30;;;;;;4948470;28;19938;-73
2021/07/14 10:53:58;;;;;;;1.60;1.45;;;17.90;75.20;;;;;;4949070;28;20102;-73
2021/07/14 10:56:35;;;;;;;1.60;1.50;;;17.90;77.00;;;;;;4943593;28;20046;-72
2021/07/14 10:59:03;;;;;;;2.33;2.00;;;17.90;74.40;;;;;;4948886;28;20027;-73
2021/07/14 11:01:49;;;;;;;1.52;1.42;;;17.90;75.50;;;;;;4948956;28;20039;-72
2021/07/14 11:04:35;;;;;;;1.85;1.70;;;17.80;73.30;;;;;;4948025;28;20064;-73
2021/07/14 11:07:04;;;;;;;1.63;1.52;;;17.80;75.30;;;;;;4940027;28;21150;-72
2021/07/14 11:09:37;;;;;;;2.00;1.80;;;17.80;75.50;;;;;;4951462;28;20027;-72
2021/07/14 11:12:05;;;;;;;2.13;1.75;;;17.80;75.60;;;;;;4963670;28;20494;-72
2021/07/14 11:14:35;;;;;;;;;;;17.80;75.60;;;;;;4949130;28;20090;-73
2021/07/14 11:17:01;;;;;;;2.10;1.50;;;17.90;73.40;;;;;;4947832;28;19918;-72
2021/07/14 11:19:42;;;;;;;1.63;1.52;;;18.00;72.50;;;;;;4948746;28;20023;-72
2021/07/14 11:22:08;;;;;;;2.08;1.58;;;18.10;73.90;;;;;;4948605;28;20106;-72
2021/07/14 11:24:37;;;;;;;2.35;1.65;;;18.20;73.30;;;;;;4909548;28;1115859;-72
2021/07/14 11:27:27;;;;;;;2.03;1.83;;;18.30;73.00;;;;;;4950882;28;20502;-71
2021/07/14 11:30:02;;;;;;;1.42;1.33;;;18.50;76.40;;;;;;4946424;28;20046;-71
2021/07/14 11:32:33;;;;;;;1.92;1.60;;;18.60;74.80;;;;;;4945203;28;20035;-73
2021/07/14 11:35:24;;;;;;;1.88;1.52;;;18.70;73.50;;;;;;4948175;28;20038;-72
2021/07/14 11:37:50;;;;;;;2.25;1.75;;;18.70;72.50;;;;;;4944568;28;20027;-72
2021/07/14 11:40:22;;;;;;;1.92;1.70;;;18.70;73.10;;;;;;4964382;28;20406;-72
2021/07/14 11:42:52;;;;;;;2.83;1.80;;;18.70;75.20;;;;;;4949852;28;20513;-72
2021/07/14 11:45:20;;;;;;;2.10;1.70;;;18.50;70.70;;;;;;4948780;28;20035;-72
2021/07/14 11:48:01;;;;;;;1.77;1.67;;;18.40;72.80;;;;;;4950123;28;20106;-72
2021/07/14 11:50:45;;;;;;;2.25;1.65;;;18.40;73.90;;;;;;4948029;28;20042;-72
2021/07/14 11:53:30;;;;;;;2.95;1.80;;;18.30;73.00;;;;;;4949836;28;20482;-72
2021/07/14 11:56:17;;;;;;;2.78;1.88;;;18.20;74.70;;;;;;4946655;28;20019;-72
2021/07/14 12:01:09;;;;;;;3.83;1.63;;;18.40;73.80;;;;;;4947725;28;20486;-73
2021/07/14 12:03:35;;;;;;;2.25;1.60;;;18.40;74.80;;;;;;4948391;28;20550;-73
2021/07/14 12:06:01;;;;;;;1.83;1.70;;;18.40;73.90;;;;;;4960838;28;20110;-72
2021/07/14 12:08:37;;;;;;;4.15;1.73;;;18.40;72.90;;;;;;4949711;28;20031;-73
2021/07/14 12:11:03;;;;;;;3.17;2.75;;;18.40;74.40;;;;;;4946408;28;20031;-72
2021/07/14 12:13:29;;;;;;;2.60;1.58;;;18.40;73.00;;;;;;4949400;28;20050;-73
2021/07/14 12:15:54;;;;;;;3.05;1.60;;;18.30;72.30;;;;;;4949050;28;20031;-73
2021/07/14 12:18:20;;;;;;;2.13;1.70;;;18.30;73.30;;;;;;4947682;28;20042;-73
2021/07/14 12:20:51;;;;;;;2.75;1.90;;;18.30;73.80;;;;;;4949586;28;20023;-73
2021/07/14 12:23:19;;;;;;;1.65;1.50;;;18.30;75.70;;;;;;4946123;28;20039;-72
2021/07/14 12:25:45;;;;;;;2.03;1.70;;;18.30;74.40;;;;;;4948347;28;20034;-72
2021/07/14 12:28:13;;;;;;;1.73;1.63;;;18.30;74.50;;;;;;4949569;28;20056;-72
2021/07/14 12:30:47;;;;;;;1.77;1.60;;;18.30;73.70;;;;;;4946329;28;20067;-73
2021/07/14 12:33:13;;;;;;;2.38;1.75;;;18.30;74.60;;;;;;4944180;28;20123;-72
2021/07/14 12:35:43;;;;;;;1.88;1.73;;;18.30;72.50;;;;;;4943478;28;20095;-73
2021/07/14 12:38:14;;;;;;;2.67;1.77;;;18.30;72.90;;;;;;4954483;28;20054;-72
2021/07/14 12:40:51;;;;;;;2.33;1.77;;;18.30;74.20;;;;;;4948703;28;20090;-73
2021/07/14 12:43:21;;;;;;;1.83;1.42;;;18.40;74.00;;;;;;4948772;28;20030;-73
2021/07/14 12:45:49;;;;;;;1.88;1.77;;;18.40;71.80;;;;;;4947905;28;20050;-73
2021/07/14 12:48:21;;;;;;;1.77;1.67;;;18.40;74.10;;;;;;4947212;28;20035;-73
2021/07/14 12:50:48;;;;;;;2.35;1.48;;;18.40;74.20;;;;;;4946114;28;20027;-72
2021/07/14 12:53:15;;;;;;;1.58;1.48;;;18.40;73.10;;;;;;4961859;28;20035;-72
2021/07/14 12:55:42;;;;;;;4.30;1.90;;;18.40;74.10;;;;;;4948307;28;20074;-72
2021/07/14 12:58:09;;;;;;;2.53;1.60;;;18.30;74.20;;;;;;4949128;28;20039;-72
2021/07/14 13:00:36;;;;;;;1.95;1.60;;;18.30;74.40;;;;;;4950016;28;20035;-73
2021/07/14 13:03:06;;;;;;;4.47;1.88;;;18.40;75.10;;;;;;4949973;28;20031;-72
2021/07/14 13:05:33;;;;;;;1.70;1.60;;;18.40;74.90;;;;;;4947437;28;20050;-72